Time;durP1;ratioP1;P1;durP2;ratioP2;P2;SDS_P1;SDS_P2;PMS_P1;PMS_P2;Temp;Humidity;BMP_temperature;BMP_pressure;BME280_temperature;BME280_humidity;BME280_pressure;Samples;Min_cycle;Max_cycle;Signal;HPM_P1;HPM_P2
2022/07/03 00:01:15;;;;;;;10.20;8.38;;;;;;;;;;8327010;28;20084;-91
2022/07/03 00:05:17;;;;;;;10.48;7.55;;;;;;;;;;8329376;28;20037;-91
2022/07/03 00:09:22;;;;;;;11.05;8.55;;;;;;;;;;8329072;28;20034;-91
2022/07/03 00:13:24;;;;;;;11.07;8.35;;;;;;;;;;8330151;28;20049;-91
2022/07/03 00:17:27;;;;;;;9.52;7.60;;;;;;;;;;8331035;28;20132;-91
2022/07/03 00:21:35;;;;;;;13.48;8.18;;;;;;;;;;8331266;28;20045;-91
2022/07/03 00:25:41;;;;;;;9.35;7.90;;;;;;;;;;8325229;28;20041;-91
2022/07/03 00:29:45;;;;;;;10.68;8.73;;;;;;;;;;8331078;28;20371;-91
2022/07/03 00:33:48;;;;;;;13.80;8.05;;;;;;;;;;8329912;28;20160;-91
2022/07/03 00:37:51;;;;;;;9.73;7.93;;;;;;;;;;8329841;28;20053;-91
2022/07/03 00:42:02;;;;;;;10.73;7.65;;;;;;;;;;8329722;28;20045;-91
2022/07/03 00:46:09;;;;;;;10.15;7.75;;;;;;;;;;8330212;28;20052;-90
2022/07/03 00:50:12;;;;;;;12.20;7.97;;;;;;;;;;8330059;28;20049;-90
2022/07/03 00:54:19;;;;;;;10.85;7.68;;;;;;;;;;8330567;28;20452;-91
2022/07/03 00:58:23;;;;;;;11.90;7.90;;;;;;;;;;8330695;28;20110;-91
2022/07/03 01:02:39;;;;;;;11.02;7.70;;;;;;;;;;8329478;28;20073;-91
2022/07/03 01:06:53;;;;;;;10.30;7.82;;;;;;;;;;8329148;28;20412;-91
2022/07/03 01:11:01;;;;;;;12.73;7.50;;;;;;;;;;8329673;28;20433;-90
2022/07/03 01:15:12;;;;;;;9.38;7.50;;;;;;;;;;8328090;28;20485;-92
2022/07/03 01:19:35;;;;;;;10.63;8.23;;;;;;;;;;8329400;28;20041;-90
2022/07/03 01:24:09;;;;;;;9.75;7.28;;;;;;;;;;8328523;28;20052;-91
2022/07/03 01:28:14;;;;;;;9.80;7.18;;;;;;;;;;8311132;28;20107;-91
2022/07/03 01:32:17;;;;;;;9.18;7.20;;;;;;;;;;8327024;28;20039;-90
2022/07/03 01:36:25;;;;;;;9.45;6.97;;;;;;;;;;8325679;28;20048;-90
2022/07/03 01:40:28;;;;;;;11.38;8.20;;;;;;;;;;8327309;28;20116;-90
2022/07/03 01:44:33;;;;;;;17.00;8.20;;;;;;;;;;8324320;28;20401;-91
2022/07/03 01:48:38;;;;;;;10.65;7.55;;;;;;;;;;8326637;28;20128;-91
2022/07/03 01:52:43;;;;;;;10.48;8.02;;;;;;;;;;8326611;28;20052;-91
2022/07/03 01:56:47;;;;;;;16.58;9.32;;;;;;;;;;8321807;28;20049;-91
2022/07/03 02:01:00;;;;;;;11.77;9.05;;;;;;;;;;8326853;28;20405;-90
2022/07/03 02:05:20;;;;;;;12.93;8.23;;;;;;;;;;8327858;28;20120;-91
2022/07/03 02:09:30;;;;;;;11.05;8.30;;;;;;;;;;8325548;28;20048;-90
2022/07/03 02:13:40;;;;;;;11.63;7.93;;;;;;;;;;8325862;28;20106;-88
2022/07/03 02:17:46;;;;;;;13.82;8.23;;;;;;;;;;8322187;28;20045;-88
2022/07/03 02:21:51;;;;;;;15.15;8.60;;;;;;;;;;8324494;28;20041;-91
2022/07/03 02:25:58;;;;;;;12.15;8.35;;;;;;;;;;8323084;28;20424;-91
2022/07/03 02:30:06;;;;;;;17.08;8.93;;;;;;;;;;8334071;28;20041;-91
2022/07/03 02:34:16;;;;;;;15.73;8.98;;;;;;;;;;8333855;28;20065;-91
2022/07/03 02:38:21;;;;;;;22.63;8.93;;;;;;;;;;8327054;28;20099;-92
2022/07/03 02:42:31;;;;;;;26.60;8.88;;;;;;;;;;8335228;28;20446;-89
2022/07/03 02:46:51;;;;;;;29.40;10.23;;;;;;;;;;8334105;28;20038;-90
2022/07/03 02:51:02;;;;;;;32.42;9.93;;;;;;;;;;8331726;28;20045;-89
2022/07/03 02:55:11;;;;;;;28.27;10.13;;;;;;;;;;8331902;28;20056;-90
2022/07/03 02:59:23;;;;;;;22.23;10.00;;;;;;;;;;8334607;28;20042;-90
2022/07/03 03:03:29;;;;;;;12.65;8.50;;;;;;;;;;8334633;28;20053;-89
2022/07/03 03:07:39;;;;;;;22.88;9.18;;;;;;;;;;8334864;28;20535;-89
2022/07/03 03:11:44;;;;;;;16.52;9.02;;;;;;;;;;8331380;28;20497;-88
2022/07/03 03:15:58;;;;;;;27.50;9.10;;;;;;;;;;8334070;28;20049;-87
2022/07/03 03:20:03;;;;;;;65.68;9.85;;;;;;;;;;8329618;28;20080;-88
2022/07/03 03:24:08;;;;;;;67.32;10.85;;;;;;;;;;8332953;28;20564;-88
2022/07/03 03:28:11;;;;;;;35.70;11.40;;;;;;;;;;8326626;28;20060;-91
2022/07/03 03:32:14;;;;;;;11.57;8.73;;;;;;;;;;8333260;28;20099;-91
2022/07/03 03:36:19;;;;;;;18.80;11.35;;;;;;;;;;8332605;28;20155;-89
2022/07/03 03:40:23;;;;;;;17.33;9.52;;;;;;;;;;8332376;28;20048;-90
2022/07/03 03:44:26;;;;;;;15.73;9.23;;;;;;;;;;8331680;28;20061;-88
2022/07/03 03:48:28;;;;;;;12.25;8.85;;;;;;;;;;8333835;28;20436;-93
2022/07/03 03:52:31;;;;;;;14.10;9.65;;;;;;;;;;8330043;28;20064;-90
2022/07/03 03:56:35;;;;;;;10.93;8.98;;;;;;;;;;8332088;28;20041;-92
2022/07/03 04:00:38;;;;;;;12.43;9.02;;;;;;;;;;8331472;28;20080;-92
2022/07/03 04:04:41;;;;;;;14.48;9.70;;;;;;;;;;8328954;28;20044;-92
2022/07/03 04:08:44;;;;;;;13.05;9.70;;;;;;;;;;8332756;28;20045;-91
2022/07/03 04:12:48;;;;;;;12.93;9.70;;;;;;;;;;8328308;28;20060;-92
2022/07/03 04:16:51;;;;;;;10.95;8.30;;;;;;;;;;8334474;28;20041;-91
2022/07/03 04:20:53;;;;;;;13.43;8.57;;;;;;;;;;8330612;28;20041;-91
2022/07/03 04:24:56;;;;;;;11.73;8.38;;;;;;;;;;8333649;28;20049;-91
2022/07/03 04:29:00;;;;;;;10.40;8.02;;;;;;;;;;8332046;28;20583;-91
2022/07/03 04:33:03;;;;;;;10.40;8.15;;;;;;;;;;8328863;28;20480;-91
2022/07/03 04:37:06;;;;;;;10.95;8.98;;;;;;;;;;8330513;28;20401;-90
2022/07/03 04:41:08;;;;;;;11.43;8.73;;;;;;;;;;8331682;28;20428;-90
2022/07/03 04:45:13;;;;;;;11.48;7.78;;;;;;;;;;8331708;28;20095;-92
2022/07/03 04:49:16;;;;;;;9.15;7.85;;;;;;;;;;8331017;28;20473;-91
2022/07/03 04:53:19;;;;;;;11.32;7.70;;;;;;;;;;8328645;28;20405;-89
2022/07/03 04:57:22;;;;;;;8.43;7.20;;;;;;;;;;8329973;28;20059;-89
2022/07/03 05:01:26;;;;;;;9.82;7.05;;;;;;;;;;8330889;28;20115;-89
2022/07/03 05:05:29;;;;;;;7.63;6.82;;;;;;;;;;8329694;28;20485;-89
2022/07/03 05:09:32;;;;;;;7.95;6.50;;;;;;;;;;8281253;28;20060;-90
2022/07/03 05:13:37;;;;;;;9.20;5.85;;;;;;;;;;8301659;28;20271;-89
2022/07/03 05:17:48;;;;;;;7.50;5.05;;;;;;;;;;8323858;28;20095;-90
2022/07/03 05:22:03;;;;;;;5.38;3.58;;;;;;;;;;8327116;28;20478;-90
2022/07/03 05:26:14;;;;;;;4.28;2.80;;;;;;;;;;8323561;28;20045;-95
2022/07/03 05:35:13;;;;;;;3.55;2.25;;;;;;;;;;8340051;28;20052;-95
2022/07/03 05:39:33;;;;;;;5.15;2.50;;;;;;;;;;8341942;28;20049;-94
2022/07/03 05:43:37;;;;;;;6.70;2.40;;;;;;;;;;8340950;28;20528;-95
2022/07/03 05:47:49;;;;;;;2.95;2.03;;;;;;;;;;8334114;28;20048;-95
2022/07/03 05:52:03;;;;;;;5.03;2.10;;;;;;;;;;8335802;28;20049;-95
2022/07/03 05:56:09;;;;;;;5.68;1.90;;;;;;;;;;8325376;28;20056;-93
2022/07/03 06:00:17;;;;;;;2.20;1.90;;;;;;;;;;8321437;28;20108;-92
2022/07/03 06:04:31;;;;;;;4.30;2.00;;;;;;;;;;8276089;28;20050;-95
2022/07/03 06:08:37;;;;;;;1.88;1.67;;;;;;;;;;8277865;28;20046;-96
2022/07/03 06:12:48;;;;;;;5.38;1.95;;;;;;;;;;8274612;28;20125;-96
2022/07/03 06:16:51;;;;;;;1.98;1.60;;;;;;;;;;8246947;28;20042;-96
2022/07/03 06:21:03;;;;;;;2.30;1.50;;;;;;;;;;8283218;28;20042;-95
2022/07/03 06:25:17;;;;;;;2.35;1.50;;;;;;;;;;8283355;28;20043;-96
2022/07/03 06:34:21;;;;;;;2.95;1.30;;;;;;;;;;8271569;28;20046;-93
2022/07/03 06:39:01;;;;;;;3.45;1.40;;;;;;;;;;8275929;28;20043;-96
2022/07/03 06:43:15;;;;;;;3.60;1.45;;;;;;;;;;8299702;28;20133;-95
2022/07/03 06:47:21;;;;;;;2.00;1.10;;;;;;;;;;8279228;28;20457;-94
2022/07/03 06:51:24;;;;;;;1.98;1.00;;;;;;;;;;8270890;28;20050;-96
2022/07/03 06:55:28;;;;;;;2.13;1.50;;;;;;;;;;8283335;28;20054;-96
2022/07/03 06:59:45;;;;;;;2.88;1.15;;;;;;;;;;8277110;28;20043;-93
2022/07/03 07:03:49;;;;;;;2.22;0.90;;;;;;;;;;8320442;28;20509;-94
2022/07/03 07:08:18;;;;;;;1.92;1.05;;;;;;;;;;8344937;28;20052;-96
2022/07/03 07:12:25;;;;;;;2.17;1.08;;;;;;;;;;8351088;28;20056;-95
2022/07/03 07:16:35;;;;;;;1.58;0.90;;;;;;;;;;8346084;28;20045;-93
2022/07/03 07:20:38;;;;;;;1.65;0.90;;;;;;;;;;8342066;28;20911;-91
2022/07/03 07:24:42;;;;;;;1.15;1.00;;;;;;;;;;8342108;28;20066;-94
2022/07/03 07:28:45;;;;;;;2.15;0.80;;;;;;;;;;8351861;28;20045;-96
2022/07/03 07:32:49;;;;;;;2.45;1.02;;;;;;;;;;8333484;28;20052;-92
2022/07/03 07:36:54;;;;;;;2.10;1.10;;;;;;;;;;8345131;28;20049;-94
2022/07/03 07:40:58;;;;;;;2.42;0.82;;;;;;;;;;8329972;28;20055;-93
2022/07/03 07:45:02;;;;;;;1.77;1.02;;;;;;;;;;8338206;28;20478;-91
2022/07/03 07:49:11;;;;;;;0.98;0.85;;;;;;;;;;8337325;28;20080;-93
2022/07/03 07:53:17;;;;;;;2.38;1.13;;;;;;;;;;8333738;28;20052;-94
2022/07/03 07:57:21;;;;;;;0.80;0.70;;;;;;;;;;8339459;28;20046;-94
2022/07/03 08:05:48;;;;;;;1.77;1.10;;;;;;;;;;8328163;28;20054;-93
2022/07/03 08:09:53;;;;;;;0.98;0.98;;;;;;;;;;8350631;28;20068;-96
2022/07/03 08:14:01;;;;;;;2.30;0.95;;;;;;;;;;8339023;28;20046;-94
2022/07/03 08:18:06;;;;;;;2.22;1.20;;;;;;;;;;8324669;28;20111;-95
2022/07/03 08:22:20;;;;;;;2.58;1.25;;;;;;;;;;8345815;28;20084;-95
2022/07/03 08:26:25;;;;;;;2.47;1.45;;;;;;;;;;8315792;28;20060;-94
2022/07/03 08:30:31;;;;;;;3.30;1.20;;;;;;;;;;8350537;28;20071;-95
2022/07/03 08:34:42;;;;;;;1.42;1.00;;;;;;;;;;8358947;28;20049;-96
2022/07/03 08:38:49;;;;;;;2.10;1.20;;;;;;;;;;8341449;28;20041;-94
2022/07/03 08:43:03;;;;;;;4.97;1.98;;;;;;;;;;8337679;28;20064;-94
2022/07/03 08:47:13;;;;;;;1.58;0.88;;;;;;;;;;8336371;28;20064;-96
2022/07/03 08:51:20;;;;;;;1.83;1.40;;;;;;;;;;8343938;28;20061;-93
2022/07/03 08:55:24;;;;;;;2.67;1.20;;;;;;;;;;8336376;28;20053;-94
2022/07/03 08:59:33;;;;;;;1.65;1.02;;;;;;;;;;8340453;28;20053;-95
2022/07/03 09:03:41;;;;;;;3.28;1.20;;;;;;;;;;8341634;28;20136;-94
2022/07/03 09:07:48;;;;;;;1.00;0.88;;;;;;;;;;8335205;28;20045;-93
2022/07/03 09:11:56;;;;;;;1.10;1.00;;;;;;;;;;8334789;28;20045;-96
2022/07/03 09:16:00;;;;;;;3.10;1.13;;;;;;;;;;8329172;28;20042;-94
2022/07/03 09:20:05;;;;;;;2.28;1.13;;;;;;;;;;8317094;28;20128;-89
2022/07/03 09:24:10;;;;;;;3.42;1.27;;;;;;;;;;8321135;28;20052;-91
2022/07/03 09:28:15;;;;;;;3.05;1.42;;;;;;;;;;8329499;28;20041;-93
2022/07/03 09:32:26;;;;;;;2.47;1.45;;;;;;;;;;8330441;28;20045;-94
2022/07/03 09:36:46;;;;;;;1.73;1.15;;;;;;;;;;8325396;28;20149;-94
2022/07/03 09:40:52;;;;;;;1.95;1.20;;;;;;;;;;8331245;28;20045;-92
2022/07/03 09:44:56;;;;;;;2.53;1.23;;;;;;;;;;8319028;28;20037;-93
2022/07/03 09:49:00;;;;;;;2.25;1.40;;;;;;;;;;8320149;28;20462;-93
2022/07/03 09:53:04;;;;;;;2.83;1.30;;;;;;;;;;8326576;28;20128;-92
2022/07/03 09:57:15;;;;;;;4.38;1.40;;;;;;;;;;8326103;28;20041;-94
2022/07/03 10:01:22;;;;;;;2.90;1.42;;;;;;;;;;8325600;28;20049;-93
2022/07/03 10:05:29;;;;;;;2.10;1.40;;;;;;;;;;8326142;28;20133;-94
2022/07/03 10:09:34;;;;;;;4.28;1.80;;;;;;;;;;8329350;28;20099;-93
2022/07/03 10:13:40;;;;;;;2.22;1.50;;;;;;;;;;8328287;28;20397;-95
2022/07/03 10:17:50;;;;;;;1.33;1.13;;;;;;;;;;8326823;28;20390;-94
2022/07/03 10:21:55;;;;;;;3.53;1.23;;;;;;;;;;8326059;28;20496;-94
2022/07/03 10:25:59;;;;;;;2.58;1.50;;;;;;;;;;8324822;28;20072;-94
2022/07/03 10:30:08;;;;;;;2.65;1.45;;;;;;;;;;8327786;28;20041;-94
2022/07/03 10:34:13;;;;;;;3.50;1.50;;;;;;;;;;8327434;28;20037;-93
2022/07/03 10:38:37;;;;;;;2.33;1.40;;;;;;;;;;8328910;28;20037;-93
2022/07/03 10:47:00;;;;;;;;;;;;;;;;;;8331312;28;20401;-93
2022/07/03 10:51:15;;;;;;;3.15;1.55;;;;;;;;;;8337336;28;19928;-93
2022/07/03 10:55:20;;;;;;;2.65;1.50;;;;;;;;;;8336089;28;20045;-93
2022/07/03 10:59:24;;;;;;;3.55;1.75;;;;;;;;;;8336280;28;20049;-94
2022/07/03 11:03:55;;;;;;;2.50;1.55;;;;;;;;;;8335341;28;20152;-94
2022/07/03 11:08:13;;;;;;;2.70;1.60;;;;;;;;;;8331132;28;20057;-94
2022/07/03 11:12:17;;;;;;;1.67;1.55;;;;;;;;;;8335171;28;20480;-94
2022/07/03 11:16:25;;;;;;;2.20;1.50;;;;;;;;;;8334789;28;20409;-94
2022/07/03 11:20:30;;;;;;;2.17;1.60;;;;;;;;;;8332048;28;20049;-93
2022/07/03 11:24:46;;;;;;;3.75;1.63;;;;;;;;;;8334790;28;20072;-94
2022/07/03 11:28:52;;;;;;;3.20;1.58;;;;;;;;;;8331247;28;20398;-95
2022/07/03 11:33:00;;;;;;;2.97;1.60;;;;;;;;;;8334426;28;20128;-94
2022/07/03 11:37:04;;;;;;;3.25;1.77;;;;;;;;;;8334223;28;20048;-94
2022/07/03 11:41:11;;;;;;;2.42;1.60;;;;;;;;;;8333830;28;20045;-94
2022/07/03 11:45:15;;;;;;;2.92;1.70;;;;;;;;;;8338978;28;20049;-93
2022/07/03 11:49:20;;;;;;;3.60;1.60;;;;;;;;;;8334130;28;20363;-94
2022/07/03 11:53:28;;;;;;;2.55;1.45;;;;;;;;;;8334085;28;20060;-94
2022/07/03 11:57:33;;;;;;;3.72;1.55;;;;;;;;;;8333642;28;20045;-95
2022/07/03 12:01:38;;;;;;;2.60;1.50;;;;;;;;;;8332826;28;20053;-95
2022/07/03 12:05:51;;;;;;;4.00;1.75;;;;;;;;;;8334323;28;20104;-95
2022/07/03 12:09:55;;;;;;;3.13;2.00;;;;;;;;;;8331855;28;20124;-94
2022/07/03 12:14:00;;;;;;;3.20;1.90;;;;;;;;;;8333384;28;20072;-93
2022/07/03 12:18:04;;;;;;;3.20;1.73;;;;;;;;;;8332875;28;20050;-95
2022/07/03 12:22:09;;;;;;;3.80;1.73;;;;;;;;;;8332697;28;20041;-94
2022/07/03 12:26:13;;;;;;;3.08;1.80;;;;;;;;;;8332844;28;20098;-95
2022/07/03 12:30:27;;;;;;;5.38;1.88;;;;;;;;;;8335453;28;20053;-93
2022/07/03 12:34:31;;;;;;;3.10;1.92;;;;;;;;;;8330390;28;20084;-93
2022/07/03 12:38:34;;;;;;;2.90;1.80;;;;;;;;;;8331616;28;20037;-95
2022/07/03 12:42:50;;;;;;;3.35;2.00;;;;;;;;;;8330507;28;20044;-95
2022/07/03 12:52:21;;;;;;;3.42;2.00;;;;;;;;;;8320546;28;20050;-94
2022/07/03 13:01:29;;;;;;;;;;;;;;;;;;8243556;28;20058;-94
2022/07/03 13:05:58;;;;;;;4.95;2.08;;;;;;;;;;8223795;28;19929;-92
2022/07/03 13:10:27;;;;;;;4.10;2.10;;;;;;;;;;8169736;29;20064;-94
2022/07/03 13:19:22;;;;;;;2.67;2.10;;;;;;;;;;8098627;29;20028;-93
2022/07/03 13:24:32;;;;;;;3.60;1.80;;;;;;;;;;8053657;29;20113;-93
2022/07/03 13:34:27;;;;;;;3.25;2.05;;;;;;;;;;8107109;29;20049;-91
2022/07/03 13:38:46;;;;;;;5.93;2.28;;;;;;;;;;8100013;29;20104;-89
2022/07/03 13:43:11;;;;;;;3.47;2.20;;;;;;;;;;8140012;29;20137;-96
2022/07/03 13:47:45;;;;;;;5.25;2.50;;;;;;;;;;8132556;29;20060;-94
2022/07/03 13:52:16;;;;;;;5.17;3.33;;;;;;;;;;8125846;29;20051;-94
2022/07/03 13:56:24;;;;;;;3.33;2.15;;;;;;;;;;8136122;29;20466;-93
2022/07/03 14:00:30;;;;;;;2.97;1.98;;;;;;;;;;8130880;29;20067;-92
2022/07/03 14:04:39;;;;;;;3.13;2.20;;;;;;;;;;8130172;29;20068;-95
2022/07/03 14:09:17;;;;;;;3.03;2.10;;;;;;;;;;8150240;29;20134;-95
2022/07/03 14:13:22;;;;;;;4.65;2.25;;;;;;;;;;8133954;29;20139;-94
2022/07/03 14:17:28;;;;;;;3.03;2.25;;;;;;;;;;8138812;29;20056;-93
2022/07/03 14:22:01;;;;;;;3.85;2.45;;;;;;;;;;8188042;28;20054;-93
2022/07/03 14:26:07;;;;;;;3.30;2.20;;;;;;;;;;8239199;28;20117;-92
2022/07/03 14:35:42;;;;;;;4.00;2.25;;;;;;;;;;8244846;28;20047;-92
2022/07/03 14:40:18;;;;;;;3.13;2.40;;;;;;;;;;8264720;28;20088;-93
2022/07/03 14:44:25;;;;;;;3.05;2.42;;;;;;;;;;8253101;28;20042;-92
2022/07/03 14:48:31;;;;;;;5.75;2.90;;;;;;;;;;8285820;28;20137;-92
2022/07/03 14:53:11;;;;;;;3.17;2.00;;;;;;;;;;8329210;28;20046;-92
2022/07/03 14:57:52;;;;;;;5.28;2.50;;;;;;;;;;8323571;28;20053;-91
2022/07/03 15:02:00;;;;;;;4.25;2.20;;;;;;;;;;8327181;28;20057;-94
2022/07/03 15:06:13;;;;;;;5.03;2.28;;;;;;;;;;8336141;28;20048;-94
2022/07/03 15:10:18;;;;;;;3.28;2.30;;;;;;;;;;8330752;28;20072;-92
2022/07/03 15:14:24;;;;;;;2.42;1.90;;;;;;;;;;8330099;28;20470;-93
2022/07/03 15:18:29;;;;;;;3.83;2.33;;;;;;;;;;8328688;28;20442;-94
2022/07/03 15:22:33;;;;;;;5.13;2.33;;;;;;;;;;8325728;28;20505;-93
2022/07/03 15:26:42;;;;;;;2.72;2.10;;;;;;;;;;8331733;28;20053;-94
2022/07/03 15:30:49;;;;;;;4.22;2.30;;;;;;;;;;8327955;28;20102;-93
2022/07/03 15:34:53;;;;;;;3.15;2.30;;;;;;;;;;8331860;28;20045;-95
2022/07/03 15:39:04;;;;;;;3.08;2.40;;;;;;;;;;8326915;28;20073;-93
2022/07/03 15:43:42;;;;;;;7.97;2.50;;;;;;;;;;8330161;28;20074;-93
2022/07/03 15:47:53;;;;;;;6.95;2.50;;;;;;;;;;8312414;28;20493;-93
2022/07/03 15:52:11;;;;;;;;;;;;;;;;;;8326934;28;20045;-95
2022/07/03 15:56:20;;;;;;;5.63;2.67;;;;;;;;;;8327430;28;19925;-93
2022/07/03 16:00:36;;;;;;;4.13;2.50;;;;;;;;;;8327644;28;20087;-95
2022/07/03 16:04:57;;;;;;;3.45;2.67;;;;;;;;;;8325818;28;20091;-93
2022/07/03 16:09:01;;;;;;;4.70;2.83;;;;;;;;;;8327498;28;20045;-93
2022/07/03 16:13:08;;;;;;;5.75;3.20;;;;;;;;;;8329415;28;20335;-95
2022/07/03 16:17:14;;;;;;;3.35;2.70;;;;;;;;;;8329716;28;20037;-93
2022/07/03 16:21:19;;;;;;;4.53;2.85;;;;;;;;;;8329610;28;20038;-93
2022/07/03 16:25:23;;;;;;;5.05;2.80;;;;;;;;;;8329196;28;20394;-94
2022/07/03 16:29:26;;;;;;;3.53;2.80;;;;;;;;;;8328450;28;20497;-92
2022/07/03 16:33:35;;;;;;;16.55;3.40;;;;;;;;;;8327007;28;20053;-91
2022/07/03 16:37:45;;;;;;;9.98;3.20;;;;;;;;;;8319082;28;20052;-91
2022/07/03 16:41:53;;;;;;;4.53;2.95;;;;;;;;;;8324553;28;20041;-92
2022/07/03 16:45:56;;;;;;;4.07;3.28;;;;;;;;;;8324884;28;20049;-93
2022/07/03 16:50:02;;;;;;;3.78;2.47;;;;;;;;;;8326340;28;20051;-92
2022/07/03 16:54:13;;;;;;;5.40;2.80;;;;;;;;;;8328820;28;20041;-94
2022/07/03 16:58:17;;;;;;;6.05;3.20;;;;;;;;;;8328176;28;20041;-94
2022/07/03 17:02:24;;;;;;;4.53;3.13;;;;;;;;;;8328345;28;20146;-91
2022/07/03 17:06:29;;;;;;;3.17;2.55;;;;;;;;;;8327945;28;20041;-93
2022/07/03 17:10:33;;;;;;;3.05;2.45;;;;;;;;;;8328038;28;20049;-94
2022/07/03 17:14:37;;;;;;;8.05;3.33;;;;;;;;;;8327978;28;20053;-93
2022/07/03 17:18:49;;;;;;;6.18;2.70;;;;;;;;;;8327681;28;20041;-89
2022/07/03 17:23:02;;;;;;;4.85;2.78;;;;;;;;;;8326999;28;20766;-92
2022/07/03 17:27:08;;;;;;;3.38;2.33;;;;;;;;;;8325649;28;20033;-89
2022/07/03 17:31:18;;;;;;;3.00;2.60;;;;;;;;;;8323131;28;20374;-89
2022/07/03 17:35:26;;;;;;;4.05;2.60;;;;;;;;;;8324915;28;20045;-89
2022/07/03 17:39:34;;;;;;;3.30;2.40;;;;;;;;;;8327171;28;20045;-91
2022/07/03 17:43:40;;;;;;;4.13;2.72;;;;;;;;;;8341130;28;20547;-94
2022/07/03 17:47:47;;;;;;;12.23;3.38;;;;;;;;;;8322192;28;20103;-92
2022/07/03 17:52:00;;;;;;;4.40;2.55;;;;;;;;;;8322686;28;20417;-89
2022/07/03 17:56:13;;;;;;;7.25;2.80;;;;;;;;;;8324666;28;20444;-91
2022/07/03 18:00:23;;;;;;;8.10;2.70;;;;;;;;;;8326399;28;20056;-90
2022/07/03 18:04:36;;;;;;;3.28;2.70;;;;;;;;;;8336563;28;20061;-88
2022/07/03 18:08:54;;;;;;;6.20;2.90;;;;;;;;;;8335505;28;20057;-89
2022/07/03 18:13:12;;;;;;;4.35;2.97;;;;;;;;;;8331638;28;20112;-91
2022/07/03 18:17:18;;;;;;;5.03;3.42;;;;;;;;;;8331601;28;20441;-94
2022/07/03 18:21:30;;;;;;;5.25;3.20;;;;;;;;;;8329571;28;20053;-92
2022/07/03 18:25:59;;;;;;;7.43;3.38;;;;;;;;;;8336876;28;20049;-92
2022/07/03 18:30:38;;;;;;;6.97;3.20;;;;;;;;;;8337363;28;20045;-95
2022/07/03 18:35:21;;;;;;;6.07;3.20;;;;;;;;;;8336387;28;20489;-92
2022/07/03 18:39:57;;;;;;;5.68;3.38;;;;;;;;;;8335187;28;20076;-90
2022/07/03 18:44:51;;;;;;;4.50;3.05;;;;;;;;;;8332717;28;20045;-95
2022/07/03 18:49:10;;;;;;;4.43;3.40;;;;;;;;;;8330677;28;20119;-93
2022/07/03 18:53:49;;;;;;;4.85;3.03;;;;;;;;;;8329924;28;20049;-93
2022/07/03 19:03:27;;;;;;;5.90;3.42;;;;;;;;;;8325841;28;20053;-94
2022/07/03 19:07:57;;;;;;;6.80;3.85;;;;;;;;;;8331707;28;20086;-94
2022/07/03 19:12:18;;;;;;;4.75;3.20;;;;;;;;;;8327373;28;20045;-92
2022/07/03 19:16:36;;;;;;;3.67;3.10;;;;;;;;;;8346004;28;20033;-91
2022/07/03 19:20:41;;;;;;;6.80;3.67;;;;;;;;;;8344912;28;20041;-91
2022/07/03 19:24:50;;;;;;;5.28;3.60;;;;;;;;;;8347679;28;20041;-89
2022/07/03 19:28:57;;;;;;;6.47;3.70;;;;;;;;;;8345417;28;20041;-94
2022/07/03 19:33:14;;;;;;;8.15;3.70;;;;;;;;;;8335590;28;20040;-93
2022/07/03 19:37:29;;;;;;;4.80;3.60;;;;;;;;;;8335529;28;20124;-90
2022/07/03 19:41:47;;;;;;;4.95;3.53;;;;;;;;;;8324148;28;20046;-94
2022/07/03 19:46:27;;;;;;;5.70;3.75;;;;;;;;;;8329547;28;20481;-94
2022/07/03 19:51:15;;;;;;;5.78;3.85;;;;;;;;;;8330393;28;20508;-93
2022/07/03 19:55:27;;;;;;;7.38;4.15;;;;;;;;;;8328848;28;20050;-93
2022/07/03 19:59:48;;;;;;;5.07;3.58;;;;;;;;;;8329375;28;20378;-94
2022/07/03 20:04:12;;;;;;;5.43;3.45;;;;;;;;;;8330488;28;20053;-94
2022/07/03 20:08:39;;;;;;;5.70;3.97;;;;;;;;;;8333638;28;20457;-92
2022/07/03 20:12:55;;;;;;;5.93;3.77;;;;;;;;;;8329551;28;20436;-94
2022/07/03 20:17:34;;;;;;;5.55;3.97;;;;;;;;;;8333486;28;20041;-93
2022/07/03 20:21:47;;;;;;;5.70;3.83;;;;;;;;;;8327388;28;20054;-92
2022/07/03 20:25:56;;;;;;;7.85;3.83;;;;;;;;;;8333062;28;20120;-94
2022/07/03 20:29:59;;;;;;;5.82;4.22;;;;;;;;;;8333115;28;20535;-93
2022/07/03 20:34:05;;;;;;;6.30;4.47;;;;;;;;;;8332811;28;20046;-93
2022/07/03 20:38:14;;;;;;;6.25;4.53;;;;;;;;;;8332655;28;20120;-94
2022/07/03 20:42:18;;;;;;;5.70;4.70;;;;;;;;;;8332811;28;20053;-93
2022/07/03 20:46:22;;;;;;;6.63;4.00;;;;;;;;;;8332536;28;20041;-91
2022/07/03 20:50:28;;;;;;;5.38;4.35;;;;;;;;;;8332251;28;20135;-92
2022/07/03 20:54:33;;;;;;;7.82;4.15;;;;;;;;;;8331857;28;20045;-93
2022/07/03 20:58:36;;;;;;;6.25;4.30;;;;;;;;;;8331494;28;20508;-88
2022/07/03 21:02:39;;;;;;;6.18;4.75;;;;;;;;;;8331321;28;20057;-92
2022/07/03 21:06:44;;;;;;;7.68;4.72;;;;;;;;;;8331364;28;20428;-93
2022/07/03 21:15:08;;;;;;;4.82;3.63;;;;;;;;;;8329999;28;20052;-91
2022/07/03 21:19:13;;;;;;;7.95;4.40;;;;;;;;;;8331036;28;20041;-91
2022/07/03 21:23:18;;;;;;;5.63;4.57;;;;;;;;;;8331399;28;20064;-89
2022/07/03 21:27:21;;;;;;;6.93;4.88;;;;;;;;;;8330602;28;20064;-88
2022/07/03 21:31:25;;;;;;;7.53;5.15;;;;;;;;;;8330490;28;20444;-88
2022/07/03 21:35:28;;;;;;;7.85;5.00;;;;;;;;;;8330282;28;20481;-90
2022/07/03 21:39:32;;;;;;;8.40;5.00;;;;;;;;;;8330231;28;20083;-87
2022/07/03 21:43:35;;;;;;;8.63;4.50;;;;;;;;;;8330492;28;20553;-89
2022/07/03 21:47:39;;;;;;;5.40;4.53;;;;;;;;;;8330078;28;20401;-90
2022/07/03 21:51:42;;;;;;;11.68;5.18;;;;;;;;;;8323955;28;20041;-87
2022/07/03 21:55:46;;;;;;;9.23;4.78;;;;;;;;;;8330166;28;20041;-87
2022/07/03 21:59:48;;;;;;;8.00;5.20;;;;;;;;;;8329965;28;20524;-87
2022/07/03 22:03:51;;;;;;;8.95;4.95;;;;;;;;;;8329709;28;20057;-88
2022/07/03 22:07:54;;;;;;;6.60;5.53;;;;;;;;;;8329771;28;20037;-88
2022/07/03 22:16:20;;;;;;;8.50;5.00;;;;;;;;;;8304025;28;20544;-87
2022/07/03 22:20:23;;;;;;;7.07;5.38;;;;;;;;;;8330040;28;20460;-90
2022/07/03 22:24:26;;;;;;;8.10;4.97;;;;;;;;;;8323087;28;20417;-89
2022/07/03 22:28:30;;;;;;;7.63;5.18;;;;;;;;;;8329643;28;20046;-88
2022/07/03 22:32:32;;;;;;;7.57;5.43;;;;;;;;;;8329368;28;20554;-88
2022/07/03 22:36:35;;;;;;;6.32;4.47;;;;;;;;;;8327960;28;20052;-87
2022/07/03 22:40:37;;;;;;;11.13;5.70;;;;;;;;;;8329320;28;20402;-87
2022/07/03 22:44:42;;;;;;;6.85;4.40;;;;;;;;;;8331855;28;20128;-88
2022/07/03 22:48:45;;;;;;;7.20;4.38;;;;;;;;;;8335409;28;20060;-88
2022/07/03 22:52:48;;;;;;;7.07;4.82;;;;;;;;;;8335078;28;20041;-87
2022/07/03 22:56:51;;;;;;;5.90;4.43;;;;;;;;;;8335048;28;20049;-88
2022/07/03 23:00:55;;;;;;;6.70;4.70;;;;;;;;;;8334635;28;20130;-88
2022/07/03 23:04:57;;;;;;;8.65;4.90;;;;;;;;;;8334787;28;20041;-88
2022/07/03 23:09:00;;;;;;;6.28;4.65;;;;;;;;;;8334740;28;20044;-88
2022/07/03 23:13:03;;;;;;;6.88;4.95;;;;;;;;;;8334502;28;20046;-89
2022/07/03 23:17:07;;;;;;;6.28;4.25;;;;;;;;;;8334562;28;20042;-88
2022/07/03 23:21:09;;;;;;;10.45;4.85;;;;;;;;;;8334166;28;20041;-88
2022/07/03 23:25:12;;;;;;;6.03;4.18;;;;;;;;;;8334366;28;20072;-89
2022/07/03 23:29:14;;;;;;;6.22;4.85;;;;;;;;;;8333919;28;20048;-89
2022/07/03 23:33:19;;;;;;;7.45;4.53;;;;;;;;;;8327963;28;20139;-88
2022/07/03 23:37:21;;;;;;;9.75;4.45;;;;;;;;;;8334358;28;20080;-90
2022/07/03 23:41:24;;;;;;;5.45;3.90;;;;;;;;;;8335933;28;20041;-92
2022/07/03 23:45:29;;;;;;;6.15;4.47;;;;;;;;;;8336272;28;20103;-90
2022/07/03 23:53:56;;;;;;;6.28;4.55;;;;;;;;;;8328115;28;20053;-89
2022/07/03 23:57:59;;;;;;;6.70;4.40;;;;;;;;;;8332658;28;20061;-89
